sensor_id;sensor_type;location;lat;lon;timestamp;temperature;humidity
12152;DHT22;6139;51.274;7.128;2022-08-21T00:00:41;17.30;1.00
12152;DHT22;6139;51.274;7.128;2022-08-21T00:01:43;17.40;1.00
12152;DHT22;6139;51.274;7.128;2022-08-21T00:02:48;17.30;1.00
12152;DHT22;6139;51.274;7.128;2022-08-21T00:03:51;17.30;1.00
12152;DHT22;6139;51.274;7.128;2022-08-21T00:04:52;17.40;1.00
12152;DHT22;6139;51.274;7.128;2022-08-21T00:05:54;17.40;1.00
12152;DHT22;6139;51.274;7.128;2022-08-21T00:06:56;17.40;1.00
12152;DHT22;6139;51.274;7.128;2022-08-21T00:07:59;17.30;1.00
12152;DHT22;6139;51.274;7.128;2022-08-21T00:09:00;17.30;1.00
12152;DHT22;6139;51.274;7.128;2022-08-21T00:10:03;17.30;1.00
12152;DHT22;6139;51.274;7.128;2022-08-21T00:11:05;17.20;1.00
12152;DHT22;6139;51.274;7.128;2022-08-21T00:12:08;17.20;7.30
12152;DHT22;6139;51.274;7.128;2022-08-21T00:13:09;17.20;7.80
12152;DHT22;6139;51.274;7.128;2022-08-21T00:14:11;17.20;1.00
12152;DHT22;6139;51.274;7.128;2022-08-21T00:15:15;17.10;1.00
12152;DHT22;6139;51.274;7.128;2022-08-21T00:16:17;17.10;1.00
12152;DHT22;6139;51.274;7.128;2022-08-21T00:17:19;17.10;4.60
12152;DHT22;6139;51.274;7.128;2022-08-21T00:18:22;17.10;3.70
12152;DHT22;6139;51.274;7.128;2022-08-21T00:19:24;17.10;1.00
12152;DHT22;6139;51.274;7.128;2022-08-21T00:20:26;17.10;1.00
12152;DHT22;6139;51.274;7.128;2022-08-21T00:21:28;17.10;1.00
12152;DHT22;6139;51.274;7.128;2022-08-21T00:22:29;17.20;1.00
12152;DHT22;6139;51.274;7.128;2022-08-21T00:23:33;17.20;1.00
12152;DHT22;6139;51.274;7.128;2022-08-21T00:24:34;17.10;1.00
12152;DHT22;6139;51.274;7.128;2022-08-21T00:25:37;17.10;1.00
12152;DHT22;6139;51.274;7.128;2022-08-21T00:26:38;17.10;1.00
12152;DHT22;6139;51.274;7.128;2022-08-21T00:27:41;17.10;1.00
12152;DHT22;6139;51.274;7.128;2022-08-21T00:28:43;17.10;1.00
12152;DHT22;6139;51.274;7.128;2022-08-21T00:29:46;17.00;4.00
12152;DHT22;6139;51.274;7.128;2022-08-21T00:30:47;17.10;18.60
12152;DHT22;6139;51.274;7.128;2022-08-21T00:31:49;17.00;27.50
12152;DHT22;6139;51.274;7.128;2022-08-21T00:32:51;17.00;27.40
12152;DHT22;6139;51.274;7.128;2022-08-21T00:33:55;17.00;32.30
12152;DHT22;6139;51.274;7.128;2022-08-21T00:34:56;17.00;34.10
12152;DHT22;6139;51.274;7.128;2022-08-21T00:35:58;16.90;74.70
12152;DHT22;6139;51.274;7.128;2022-08-21T00:36:59;16.90;73.10
12152;DHT22;6139;51.274;7.128;2022-08-21T00:38:04;16.90;87.60
12152;DHT22;6139;51.274;7.128;2022-08-21T00:39:07;16.90;77.40
12152;DHT22;6139;51.274;7.128;2022-08-21T00:40:13;16.90;74.00
12152;DHT22;6139;51.274;7.128;2022-08-21T00:41:14;16.90;84.00
12152;DHT22;6139;51.274;7.128;2022-08-21T00:42:16;16.90;68.30
12152;DHT22;6139;51.274;7.128;2022-08-21T00:43:21;16.90;85.90
12152;DHT22;6139;51.274;7.128;2022-08-21T00:44:24;16.90;67.00
12152;DHT22;6139;51.274;7.128;2022-08-21T00:45:25;16.80;83.60
12152;DHT22;6139;51.274;7.128;2022-08-21T00:46:28;16.80;92.90
12152;DHT22;6139;51.274;7.128;2022-08-21T00:47:29;16.70;94.70
12152;DHT22;6139;51.274;7.128;2022-08-21T00:48:32;16.60;99.90
12152;DHT22;6139;51.274;7.128;2022-08-21T00:49:35;16.60;99.90
12152;DHT22;6139;51.274;7.128;2022-08-21T00:50:43;16.60;99.90
12152;DHT22;6139;51.274;7.128;2022-08-21T00:51:52;16.50;99.90
12152;DHT22;6139;51.274;7.128;2022-08-21T00:52:55;16.50;99.90
12152;DHT22;6139;51.274;7.128;2022-08-21T00:53:59;16.50;99.90
12152;DHT22;6139;51.274;7.128;2022-08-21T00:55:04;16.50;99.90
12152;DHT22;6139;51.274;7.128;2022-08-21T00:56:07;16.50;99.90
12152;DHT22;6139;51.274;7.128;2022-08-21T00:57:13;16.40;99.90
12152;DHT22;6139;51.274;7.128;2022-08-21T00:58:17;16.40;99.90
12152;DHT22;6139;51.274;7.128;2022-08-21T00:59:20;16.40;99.90
12152;DHT22;6139;51.274;7.128;2022-08-21T01:00:26;16.40;99.90
12152;DHT22;6139;51.274;7.128;2022-08-21T01:01:30;16.40;99.90
12152;DHT22;6139;51.274;7.128;2022-08-21T01:02:31;16.40;99.90
12152;DHT22;6139;51.274;7.128;2022-08-21T01:03:34;16.40;99.90
12152;DHT22;6139;51.274;7.128;2022-08-21T01:04:37;16.50;99.90
12152;DHT22;6139;51.274;7.128;2022-08-21T01:05:40;16.50;99.90
12152;DHT22;6139;51.274;7.128;2022-08-21T01:06:41;16.60;99.90
12152;DHT22;6139;51.274;7.128;2022-08-21T01:07:43;16.60;99.90
12152;DHT22;6139;51.274;7.128;2022-08-21T01:08:46;16.70;99.90
12152;DHT22;6139;51.274;7.128;2022-08-21T01:09:49;16.70;99.90
12152;DHT22;6139;51.274;7.128;2022-08-21T01:10:52;16.70;99.90
12152;DHT22;6139;51.274;7.128;2022-08-21T01:11:59;16.60;99.90
12152;DHT22;6139;51.274;7.128;2022-08-21T01:13:01;16.60;99.90
12152;DHT22;6139;51.274;7.128;2022-08-21T01:14:03;16.60;99.90
12152;DHT22;6139;51.274;7.128;2022-08-21T01:15:07;16.50;99.90
12152;DHT22;6139;51.274;7.128;2022-08-21T01:16:09;16.50;99.90
12152;DHT22;6139;51.274;7.128;2022-08-21T01:17:11;16.50;99.90
12152;DHT22;6139;51.274;7.128;2022-08-21T01:18:15;16.50;99.90
12152;DHT22;6139;51.274;7.128;2022-08-21T01:19:18;16.50;99.90
12152;DHT22;6139;51.274;7.128;2022-08-21T01:20:23;16.50;99.90
12152;DHT22;6139;51.274;7.128;2022-08-21T01:21:26;16.50;99.90
12152;DHT22;6139;51.274;7.128;2022-08-21T01:22:29;16.50;99.90
12152;DHT22;6139;51.274;7.128;2022-08-21T01:23:30;16.60;99.90
12152;DHT22;6139;51.274;7.128;2022-08-21T01:24:33;16.60;99.90
12152;DHT22;6139;51.274;7.128;2022-08-21T01:25:34;16.60;99.90
12152;DHT22;6139;51.274;7.128;2022-08-21T01:26:37;16.60;99.90
12152;DHT22;6139;51.274;7.128;2022-08-21T01:27:38;16.60;99.90
12152;DHT22;6139;51.274;7.128;2022-08-21T01:28:46;16.60;99.90
12152;DHT22;6139;51.274;7.128;2022-08-21T01:29:53;16.70;99.90
12152;DHT22;6139;51.274;7.128;2022-08-21T01:30:57;16.70;99.90
12152;DHT22;6139;51.274;7.128;2022-08-21T01:31:59;16.70;99.90
12152;DHT22;6139;51.274;7.128;2022-08-21T01:33:02;16.80;99.90
12152;DHT22;6139;51.274;7.128;2022-08-21T01:34:04;16.70;99.90
12152;DHT22;6139;51.274;7.128;2022-08-21T01:35:07;16.70;99.90
12152;DHT22;6139;51.274;7.128;2022-08-21T01:36:08;16.70;99.90
12152;DHT22;6139;51.274;7.128;2022-08-21T01:37:12;16.70;99.90
12152;DHT22;6139;51.274;7.128;2022-08-21T01:38:13;16.70;99.90
12152;DHT22;6139;51.274;7.128;2022-08-21T01:39:16;16.80;99.90
12152;DHT22;6139;51.274;7.128;2022-08-21T01:40:18;16.80;99.90
12152;DHT22;6139;51.274;7.128;2022-08-21T01:41:20;16.80;99.90
12152;DHT22;6139;51.274;7.128;2022-08-21T01:42:21;16.70;99.90
12152;DHT22;6139;51.274;7.128;2022-08-21T01:43:23;16.70;99.90
12152;DHT22;6139;51.274;7.128;2022-08-21T01:44:25;16.70;99.90
12152;DHT22;6139;51.274;7.128;2022-08-21T01:45:27;16.60;99.90
12152;DHT22;6139;51.274;7.128;2022-08-21T01:46:28;16.60;99.90
12152;DHT22;6139;51.274;7.128;2022-08-21T01:47:31;16.70;99.90
12152;DHT22;6139;51.274;7.128;2022-08-21T01:48:32;16.50;99.90
12152;DHT22;6139;51.274;7.128;2022-08-21T01:49:34;16.50;99.90
12152;DHT22;6139;51.274;7.128;2022-08-21T01:50:35;16.60;99.90
12152;DHT22;6139;51.274;7.128;2022-08-21T01:51:38;16.60;99.90
12152;DHT22;6139;51.274;7.128;2022-08-21T01:52:41;16.60;99.90
12152;DHT22;6139;51.274;7.128;2022-08-21T01:53:43;16.60;99.90
12152;DHT22;6139;51.274;7.128;2022-08-21T01:54:44;16.60;99.90
12152;DHT22;6139;51.274;7.128;2022-08-21T01:55:46;16.60;99.90
12152;DHT22;6139;51.274;7.128;2022-08-21T01:56:49;16.60;99.90
12152;DHT22;6139;51.274;7.128;2022-08-21T01:57:52;16.60;99.90
12152;DHT22;6139;51.274;7.128;2022-08-21T01:58:53;16.60;99.90
12152;DHT22;6139;51.274;7.128;2022-08-21T01:59:55;16.60;99.90
12152;DHT22;6139;51.274;7.128;2022-08-21T02:00:56;16.60;99.90
12152;DHT22;6139;51.274;7.128;2022-08-21T02:01:58;16.50;99.90
12152;DHT22;6139;51.274;7.128;2022-08-21T02:02:59;16.60;99.90
12152;DHT22;6139;51.274;7.128;2022-08-21T02:04:02;16.50;99.90
12152;DHT22;6139;51.274;7.128;2022-08-21T02:05:04;16.50;99.90
12152;DHT22;6139;51.274;7.128;2022-08-21T02:06:11;16.50;99.90
12152;DHT22;6139;51.274;7.128;2022-08-21T02:07:12;16.50;99.90
12152;DHT22;6139;51.274;7.128;2022-08-21T02:08:17;16.50;99.90
12152;DHT22;6139;51.274;7.128;2022-08-21T02:09:18;16.40;99.90
12152;DHT22;6139;51.274;7.128;2022-08-21T02:10:25;16.40;99.90
12152;DHT22;6139;51.274;7.128;2022-08-21T02:11:27;16.40;99.90
12152;DHT22;6139;51.274;7.128;2022-08-21T02:12:30;16.30;99.90
12152;DHT22;6139;51.274;7.128;2022-08-21T02:13:31;16.30;99.90
12152;DHT22;6139;51.274;7.128;2022-08-21T02:14:33;16.30;99.90
12152;DHT22;6139;51.274;7.128;2022-08-21T02:15:34;16.30;99.90
12152;DHT22;6139;51.274;7.128;2022-08-21T02:16:37;16.30;99.90
12152;DHT22;6139;51.274;7.128;2022-08-21T02:17:41;16.30;99.90
12152;DHT22;6139;51.274;7.128;2022-08-21T02:18:43;16.20;99.90
12152;DHT22;6139;51.274;7.128;2022-08-21T02:19:44;16.20;99.90
12152;DHT22;6139;51.274;7.128;2022-08-21T02:20:48;16.20;99.90
12152;DHT22;6139;51.274;7.128;2022-08-21T02:21:49;16.20;99.90
12152;DHT22;6139;51.274;7.128;2022-08-21T02:22:52;16.20;99.90
12152;DHT22;6139;51.274;7.128;2022-08-21T02:23:55;16.20;99.90
12152;DHT22;6139;51.274;7.128;2022-08-21T02:24:57;16.30;99.90
12152;DHT22;6139;51.274;7.128;2022-08-21T02:25:59;16.20;99.90
12152;DHT22;6139;51.274;7.128;2022-08-21T02:27:02;16.20;99.90
12152;DHT22;6139;51.274;7.128;2022-08-21T02:28:05;16.30;99.90
12152;DHT22;6139;51.274;7.128;2022-08-21T02:29:07;16.20;99.90
12152;DHT22;6139;51.274;7.128;2022-08-21T02:30:11;16.20;99.90
12152;DHT22;6139;51.274;7.128;2022-08-21T02:31:14;16.20;99.90
12152;DHT22;6139;51.274;7.128;2022-08-21T02:32:15;16.20;99.90
12152;DHT22;6139;51.274;7.128;2022-08-21T02:33:18;16.20;99.90
12152;DHT22;6139;51.274;7.128;2022-08-21T02:34:19;16.20;99.90
12152;DHT22;6139;51.274;7.128;2022-08-21T02:35:22;16.20;99.90
12152;DHT22;6139;51.274;7.128;2022-08-21T02:36:24;16.10;99.90
12152;DHT22;6139;51.274;7.128;2022-08-21T02:37:26;16.10;99.90
12152;DHT22;6139;51.274;7.128;2022-08-21T02:38:31;16.10;99.90
12152;DHT22;6139;51.274;7.128;2022-08-21T02:39:36;16.00;99.90
12152;DHT22;6139;51.274;7.128;2022-08-21T02:40:39;15.90;99.90
12152;DHT22;6139;51.274;7.128;2022-08-21T02:41:42;15.80;99.90
12152;DHT22;6139;51.274;7.128;2022-08-21T02:42:44;15.80;99.90
12152;DHT22;6139;51.274;7.128;2022-08-21T02:43:46;15.90;99.90
12152;DHT22;6139;51.274;7.128;2022-08-21T02:44:48;15.80;99.90
12152;DHT22;6139;51.274;7.128;2022-08-21T02:45:50;15.80;99.90
12152;DHT22;6139;51.274;7.128;2022-08-21T02:46:52;15.80;99.90
12152;DHT22;6139;51.274;7.128;2022-08-21T02:47:55;15.70;99.90
12152;DHT22;6139;51.274;7.128;2022-08-21T02:48:57;15.70;99.90
12152;DHT22;6139;51.274;7.128;2022-08-21T02:49:59;15.80;99.90
12152;DHT22;6139;51.274;7.128;2022-08-21T02:51:03;15.80;99.90
12152;DHT22;6139;51.274;7.128;2022-08-21T02:52:05;15.70;99.90
12152;DHT22;6139;51.274;7.128;2022-08-21T02:53:09;15.70;99.90
12152;DHT22;6139;51.274;7.128;2022-08-21T02:54:11;15.60;99.90
12152;DHT22;6139;51.274;7.128;2022-08-21T02:55:15;15.60;99.90
12152;DHT22;6139;51.274;7.128;2022-08-21T02:56:19;15.60;99.90
12152;DHT22;6139;51.274;7.128;2022-08-21T02:57:21;15.60;99.90
12152;DHT22;6139;51.274;7.128;2022-08-21T02:58:26;15.50;99.90
12152;DHT22;6139;51.274;7.128;2022-08-21T02:59:28;15.50;99.90
12152;DHT22;6139;51.274;7.128;2022-08-21T03:00:30;15.50;99.90
12152;DHT22;6139;51.274;7.128;2022-08-21T03:01:32;15.50;99.90
12152;DHT22;6139;51.274;7.128;2022-08-21T03:02:33;15.50;99.90
12152;DHT22;6139;51.274;7.128;2022-08-21T03:03:36;15.50;99.90
12152;DHT22;6139;51.274;7.128;2022-08-21T03:04:37;15.50;99.90
12152;DHT22;6139;51.274;7.128;2022-08-21T03:05:39;15.60;99.90
12152;DHT22;6139;51.274;7.128;2022-08-21T03:06:40;15.60;99.90
12152;DHT22;6139;51.274;7.128;2022-08-21T03:07:44;15.70;99.90
12152;DHT22;6139;51.274;7.128;2022-08-21T03:08:45;15.70;99.90
12152;DHT22;6139;51.274;7.128;2022-08-21T03:09:47;15.70;99.90
12152;DHT22;6139;51.274;7.128;2022-08-21T03:10:51;15.70;99.90
12152;DHT22;6139;51.274;7.128;2022-08-21T03:11:53;15.80;99.90
12152;DHT22;6139;51.274;7.128;2022-08-21T03:12:55;15.80;99.90
12152;DHT22;6139;51.274;7.128;2022-08-21T03:13:57;15.80;99.90
12152;DHT22;6139;51.274;7.128;2022-08-21T03:14:58;15.80;99.90
12152;DHT22;6139;51.274;7.128;2022-08-21T03:16:00;15.80;99.90
12152;DHT22;6139;51.274;7.128;2022-08-21T03:17:01;15.80;99.90
12152;DHT22;6139;51.274;7.128;2022-08-21T03:18:04;15.90;99.90
12152;DHT22;6139;51.274;7.128;2022-08-21T03:19:05;15.90;99.90
12152;DHT22;6139;51.274;7.128;2022-08-21T03:20:09;15.90;99.90
12152;DHT22;6139;51.274;7.128;2022-08-21T03:21:10;15.90;99.90
12152;DHT22;6139;51.274;7.128;2022-08-21T03:22:13;15.90;99.90
12152;DHT22;6139;51.274;7.128;2022-08-21T03:23:15;15.90;99.90
12152;DHT22;6139;51.274;7.128;2022-08-21T03:24:18;15.90;99.90
12152;DHT22;6139;51.274;7.128;2022-08-21T03:25:20;15.90;99.90
12152;DHT22;6139;51.274;7.128;2022-08-21T03:26:24;15.90;99.90
12152;DHT22;6139;51.274;7.128;2022-08-21T03:27:26;16.00;99.90
12152;DHT22;6139;51.274;7.128;2022-08-21T03:28:28;16.00;99.90
12152;DHT22;6139;51.274;7.128;2022-08-21T03:29:29;16.00;99.90
12152;DHT22;6139;51.274;7.128;2022-08-21T03:30:32;15.90;99.90
12152;DHT22;6139;51.274;7.128;2022-08-21T03:31:33;15.90;99.90
12152;DHT22;6139;51.274;7.128;2022-08-21T03:32:35;15.90;99.90
12152;DHT22;6139;51.274;7.128;2022-08-21T03:33:36;15.90;99.90
12152;DHT22;6139;51.274;7.128;2022-08-21T03:34:39;15.90;99.90
12152;DHT22;6139;51.274;7.128;2022-08-21T03:35:40;15.90;99.90
12152;DHT22;6139;51.274;7.128;2022-08-21T03:36:43;15.90;99.90
12152;DHT22;6139;51.274;7.128;2022-08-21T03:37:46;15.90;99.90
12152;DHT22;6139;51.274;7.128;2022-08-21T03:38:47;15.80;99.90
12152;DHT22;6139;51.274;7.128;2022-08-21T03:39:50;15.80;99.90
12152;DHT22;6139;51.274;7.128;2022-08-21T03:40:51;15.80;99.90
12152;DHT22;6139;51.274;7.128;2022-08-21T03:41:54;15.80;99.90
12152;DHT22;6139;51.274;7.128;2022-08-21T03:42:56;15.80;99.90
12152;DHT22;6139;51.274;7.128;2022-08-21T03:43:58;15.80;99.90
12152;DHT22;6139;51.274;7.128;2022-08-21T03:44:59;15.80;99.90
12152;DHT22;6139;51.274;7.128;2022-08-21T03:46:03;15.80;99.90
12152;DHT22;6139;51.274;7.128;2022-08-21T03:47:05;15.80;99.90
12152;DHT22;6139;51.274;7.128;2022-08-21T03:48:08;15.80;99.90
12152;DHT22;6139;51.274;7.128;2022-08-21T03:49:10;15.70;99.90
12152;DHT22;6139;51.274;7.128;2022-08-21T03:50:12;15.70;99.90
12152;DHT22;6139;51.274;7.128;2022-08-21T03:51:13;15.70;99.90
12152;DHT22;6139;51.274;7.128;2022-08-21T03:52:16;15.70;99.90
12152;DHT22;6139;51.274;7.128;2022-08-21T03:53:18;15.70;99.90
12152;DHT22;6139;51.274;7.128;2022-08-21T03:54:20;15.70;99.90
12152;DHT22;6139;51.274;7.128;2022-08-21T03:55:23;15.70;99.90
12152;DHT22;6139;51.274;7.128;2022-08-21T03:56:25;15.70;99.90
12152;DHT22;6139;51.274;7.128;2022-08-21T03:57:28;15.60;99.90
12152;DHT22;6139;51.274;7.128;2022-08-21T03:58:30;15.60;99.90
12152;DHT22;6139;51.274;7.128;2022-08-21T03:59:31;15.60;99.90
12152;DHT22;6139;51.274;7.128;2022-08-21T04:00:33;15.60;99.90
12152;DHT22;6139;51.274;7.128;2022-08-21T04:01:35;15.60;99.90
12152;DHT22;6139;51.274;7.128;2022-08-21T04:02:37;15.60;99.90
12152;DHT22;6139;51.274;7.128;2022-08-21T04:03:38;15.60;99.90
12152;DHT22;6139;51.274;7.128;2022-08-21T04:04:40;15.60;99.90
12152;DHT22;6139;51.274;7.128;2022-08-21T04:05:41;15.60;99.90
12152;DHT22;6139;51.274;7.128;2022-08-21T04:06:44;15.60;99.90
12152;DHT22;6139;51.274;7.128;2022-08-21T04:07:44;15.50;99.90
12152;DHT22;6139;51.274;7.128;2022-08-21T04:08:47;15.50;99.90
12152;DHT22;6139;51.274;7.128;2022-08-21T04:09:49;15.50;99.90
12152;DHT22;6139;51.274;7.128;2022-08-21T04:10:53;15.50;99.90
12152;DHT22;6139;51.274;7.128;2022-08-21T04:11:56;15.50;99.90
12152;DHT22;6139;51.274;7.128;2022-08-21T04:12:58;15.50;99.90
12152;DHT22;6139;51.274;7.128;2022-08-21T04:14:00;15.40;99.90
12152;DHT22;6139;51.274;7.128;2022-08-21T04:15:02;15.40;99.90
12152;DHT22;6139;51.274;7.128;2022-08-21T04:16:05;15.40;99.90
12152;DHT22;6139;51.274;7.128;2022-08-21T04:17:07;15.40;99.90
12152;DHT22;6139;51.274;7.128;2022-08-21T04:18:09;15.40;99.90
12152;DHT22;6139;51.274;7.128;2022-08-21T04:19:12;15.40;99.90
12152;DHT22;6139;51.274;7.128;2022-08-21T04:20:14;15.40;99.90
12152;DHT22;6139;51.274;7.128;2022-08-21T04:21:16;15.40;99.90
12152;DHT22;6139;51.274;7.128;2022-08-21T04:22:17;15.40;99.90
12152;DHT22;6139;51.274;7.128;2022-08-21T04:23:20;15.40;99.90
12152;DHT22;6139;51.274;7.128;2022-08-21T04:24:22;15.40;99.90
12152;DHT22;6139;51.274;7.128;2022-08-21T04:25:24;15.40;99.90
12152;DHT22;6139;51.274;7.128;2022-08-21T04:26:26;15.40;99.90
12152;DHT22;6139;51.274;7.128;2022-08-21T04:27:28;15.30;99.90
12152;DHT22;6139;51.274;7.128;2022-08-21T04:28:30;15.30;99.90
12152;DHT22;6139;51.274;7.128;2022-08-21T04:29:33;15.20;99.90
12152;DHT22;6139;51.274;7.128;2022-08-21T04:30:34;15.20;99.90
12152;DHT22;6139;51.274;7.128;2022-08-21T04:31:36;15.10;99.90
12152;DHT22;6139;51.274;7.128;2022-08-21T04:32:38;15.10;99.90
12152;DHT22;6139;51.274;7.128;2022-08-21T04:33:40;15.10;99.90
12152;DHT22;6139;51.274;7.128;2022-08-21T04:34:41;15.10;99.90
12152;DHT22;6139;51.274;7.128;2022-08-21T04:35:43;15.10;99.90
12152;DHT22;6139;51.274;7.128;2022-08-21T04:36:44;15.10;99.90
12152;DHT22;6139;51.274;7.128;2022-08-21T04:37:47;15.10;99.90
12152;DHT22;6139;51.274;7.128;2022-08-21T04:38:48;15.10;99.90
12152;DHT22;6139;51.274;7.128;2022-08-21T04:39:50;15.00;99.90
12152;DHT22;6139;51.274;7.128;2022-08-21T04:40:52;15.10;99.90
12152;DHT22;6139;51.274;7.128;2022-08-21T04:41:54;15.10;99.90
12152;DHT22;6139;51.274;7.128;2022-08-21T04:42:57;15.10;99.90
12152;DHT22;6139;51.274;7.128;2022-08-21T04:44:02;15.10;99.90
12152;DHT22;6139;51.274;7.128;2022-08-21T04:45:04;15.10;99.90
12152;DHT22;6139;51.274;7.128;2022-08-21T04:46:07;15.20;99.90
12152;DHT22;6139;51.274;7.128;2022-08-21T04:47:08;15.20;99.90
12152;DHT22;6139;51.274;7.128;2022-08-21T04:48:12;15.20;99.90
12152;DHT22;6139;51.274;7.128;2022-08-21T04:49:14;15.20;99.90
12152;DHT22;6139;51.274;7.128;2022-08-21T04:50:15;15.20;99.90
12152;DHT22;6139;51.274;7.128;2022-08-21T04:51:32;15.20;99.90
12152;DHT22;6139;51.274;7.128;2022-08-21T04:52:36;15.20;99.90
12152;DHT22;6139;51.274;7.128;2022-08-21T04:53:41;15.20;99.90
12152;DHT22;6139;51.274;7.128;2022-08-21T04:54:44;15.20;99.90
12152;DHT22;6139;51.274;7.128;2022-08-21T04:55:47;15.10;99.90
12152;DHT22;6139;51.274;7.128;2022-08-21T04:56:51;15.20;99.90
12152;DHT22;6139;51.274;7.128;2022-08-21T04:57:53;15.10;99.90
12152;DHT22;6139;51.274;7.128;2022-08-21T04:59:00;15.10;99.90
12152;DHT22;6139;51.274;7.128;2022-08-21T05:00:06;15.10;99.90
12152;DHT22;6139;51.274;7.128;2022-08-21T05:01:19;15.10;99.90
12152;DHT22;6139;51.274;7.128;2022-08-21T05:02:22;15.10;99.90
12152;DHT22;6139;51.274;7.128;2022-08-21T05:03:24;15.10;99.90
12152;DHT22;6139;51.274;7.128;2022-08-21T05:04:29;15.10;99.90
12152;DHT22;6139;51.274;7.128;2022-08-21T05:05:31;15.10;99.90
12152;DHT22;6139;51.274;7.128;2022-08-21T05:06:35;15.10;99.90
12152;DHT22;6139;51.274;7.128;2022-08-21T05:07:39;15.10;99.90
12152;DHT22;6139;51.274;7.128;2022-08-21T05:08:41;15.20;99.90
12152;DHT22;6139;51.274;7.128;2022-08-21T05:09:44;15.20;99.90
12152;DHT22;6139;51.274;7.128;2022-08-21T05:10:45;15.20;99.90
12152;DHT22;6139;51.274;7.128;2022-08-21T05:11:48;15.10;99.90
12152;DHT22;6139;51.274;7.128;2022-08-21T05:12:49;15.10;99.90
12152;DHT22;6139;51.274;7.128;2022-08-21T05:13:51;15.20;99.90
12152;DHT22;6139;51.274;7.128;2022-08-21T05:14:52;15.20;99.90
12152;DHT22;6139;51.274;7.128;2022-08-21T05:15:56;15.20;99.90
12152;DHT22;6139;51.274;7.128;2022-08-21T05:16:57;15.20;99.90
12152;DHT22;6139;51.274;7.128;2022-08-21T05:17:59;15.20;99.90
12152;DHT22;6139;51.274;7.128;2022-08-21T05:19:00;15.20;99.90
12152;DHT22;6139;51.274;7.128;2022-08-21T05:20:03;15.20;99.90
12152;DHT22;6139;51.274;7.128;2022-08-21T05:21:05;15.20;99.90
12152;DHT22;6139;51.274;7.128;2022-08-21T05:22:07;15.20;99.90
12152;DHT22;6139;51.274;7.128;2022-08-21T05:23:09;15.20;99.90
12152;DHT22;6139;51.274;7.128;2022-08-21T05:24:12;15.20;99.90
12152;DHT22;6139;51.274;7.128;2022-08-21T05:25:13;15.20;99.90
12152;DHT22;6139;51.274;7.128;2022-08-21T05:26:15;15.20;99.90
12152;DHT22;6139;51.274;7.128;2022-08-21T05:27:17;15.20;99.90
12152;DHT22;6139;51.274;7.128;2022-08-21T05:28:19;15.20;99.90
12152;DHT22;6139;51.274;7.128;2022-08-21T05:29:20;15.20;99.90
12152;DHT22;6139;51.274;7.128;2022-08-21T05:30:23;15.20;99.90
12152;DHT22;6139;51.274;7.128;2022-08-21T05:31:25;15.20;99.90
12152;DHT22;6139;51.274;7.128;2022-08-21T05:32:28;15.30;99.90
12152;DHT22;6139;51.274;7.128;2022-08-21T05:33:29;15.30;99.90
12152;DHT22;6139;51.274;7.128;2022-08-21T05:34:31;15.30;99.90
12152;DHT22;6139;51.274;7.128;2022-08-21T05:35:32;15.40;99.90
12152;DHT22;6139;51.274;7.128;2022-08-21T05:36:35;15.40;99.90
12152;DHT22;6139;51.274;7.128;2022-08-21T05:37:36;15.40;99.90
12152;DHT22;6139;51.274;7.128;2022-08-21T05:38:38;15.50;99.90
12152;DHT22;6139;51.274;7.128;2022-08-21T05:39:40;15.50;99.90
12152;DHT22;6139;51.274;7.128;2022-08-21T05:40:42;15.50;99.90
12152;DHT22;6139;51.274;7.128;2022-08-21T05:41:43;15.50;99.90
12152;DHT22;6139;51.274;7.128;2022-08-21T05:42:46;15.60;99.90
12152;DHT22;6139;51.274;7.128;2022-08-21T05:43:47;15.50;99.90
12152;DHT22;6139;51.274;7.128;2022-08-21T05:44:49;15.60;99.90
12152;DHT22;6139;51.274;7.128;2022-08-21T05:45:50;15.60;99.90
12152;DHT22;6139;51.274;7.128;2022-08-21T05:46:53;15.60;99.90
12152;DHT22;6139;51.274;7.128;2022-08-21T05:47:55;15.60;99.90
12152;DHT22;6139;51.274;7.128;2022-08-21T05:48:57;15.70;99.90
12152;DHT22;6139;51.274;7.128;2022-08-21T05:49:58;15.70;99.90
12152;DHT22;6139;51.274;7.128;2022-08-21T05:51:05;15.70;99.90
12152;DHT22;6139;51.274;7.128;2022-08-21T05:52:06;15.70;99.90
12152;DHT22;6139;51.274;7.128;2022-08-21T05:53:09;15.70;99.90
12152;DHT22;6139;51.274;7.128;2022-08-21T05:54:11;15.70;99.90
12152;DHT22;6139;51.274;7.128;2022-08-21T05:55:13;15.80;99.90
12152;DHT22;6139;51.274;7.128;2022-08-21T05:56:14;15.80;99.90
12152;DHT22;6139;51.274;7.128;2022-08-21T05:57:16;15.80;99.90
12152;DHT22;6139;51.274;7.128;2022-08-21T05:58:19;15.70;99.90
12152;DHT22;6139;51.274;7.128;2022-08-21T05:59:22;15.70;99.90
12152;DHT22;6139;51.274;7.128;2022-08-21T06:00:23;15.80;99.90
12152;DHT22;6139;51.274;7.128;2022-08-21T06:01:25;15.80;99.90
12152;DHT22;6139;51.274;7.128;2022-08-21T06:02:28;15.80;99.90
12152;DHT22;6139;51.274;7.128;2022-08-21T06:03:34;15.90;99.90
12152;DHT22;6139;51.274;7.128;2022-08-21T06:04:36;15.90;99.90
12152;DHT22;6139;51.274;7.128;2022-08-21T06:05:38;15.90;99.90
12152;DHT22;6139;51.274;7.128;2022-08-21T06:06:39;16.00;99.90
12152;DHT22;6139;51.274;7.128;2022-08-21T06:07:42;15.90;99.90
12152;DHT22;6139;51.274;7.128;2022-08-21T06:08:43;16.00;99.90
12152;DHT22;6139;51.274;7.128;2022-08-21T06:09:45;16.00;99.90
12152;DHT22;6139;51.274;7.128;2022-08-21T06:10:47;16.00;99.90
12152;DHT22;6139;51.274;7.128;2022-08-21T06:11:50;16.10;99.90
12152;DHT22;6139;51.274;7.128;2022-08-21T06:12:53;16.10;99.90
12152;DHT22;6139;51.274;7.128;2022-08-21T06:13:54;16.10;99.90
12152;DHT22;6139;51.274;7.128;2022-08-21T06:14:57;16.10;99.90
12152;DHT22;6139;51.274;7.128;2022-08-21T06:16:03;16.10;99.90
12152;DHT22;6139;51.274;7.128;2022-08-21T06:17:09;16.10;99.90
12152;DHT22;6139;51.274;7.128;2022-08-21T06:18:14;16.10;99.90
12152;DHT22;6139;51.274;7.128;2022-08-21T06:19:15;16.10;99.90
12152;DHT22;6139;51.274;7.128;2022-08-21T06:20:17;16.10;99.90
12152;DHT22;6139;51.274;7.128;2022-08-21T06:21:19;16.10;99.90
12152;DHT22;6139;51.274;7.128;2022-08-21T06:22:21;16.10;99.90
12152;DHT22;6139;51.274;7.128;2022-08-21T06:23:22;16.10;99.90
12152;DHT22;6139;51.274;7.128;2022-08-21T06:24:24;16.10;99.90
12152;DHT22;6139;51.274;7.128;2022-08-21T06:25:26;16.20;99.90
12152;DHT22;6139;51.274;7.128;2022-08-21T06:26:28;16.20;99.90
12152;DHT22;6139;51.274;7.128;2022-08-21T06:27:29;16.30;99.90
12152;DHT22;6139;51.274;7.128;2022-08-21T06:28:32;16.30;99.90
12152;DHT22;6139;51.274;7.128;2022-08-21T06:29:33;16.30;99.90
12152;DHT22;6139;51.274;7.128;2022-08-21T06:30:38;16.30;99.90
12152;DHT22;6139;51.274;7.128;2022-08-21T06:31:39;16.40;99.90
12152;DHT22;6139;51.274;7.128;2022-08-21T06:32:41;16.40;99.90
12152;DHT22;6139;51.274;7.128;2022-08-21T06:33:44;16.40;99.90
12152;DHT22;6139;51.274;7.128;2022-08-21T06:34:46;16.40;99.90
12152;DHT22;6139;51.274;7.128;2022-08-21T06:35:47;16.50;99.90
12152;DHT22;6139;51.274;7.128;2022-08-21T06:36:49;16.50;99.90
12152;DHT22;6139;51.274;7.128;2022-08-21T06:37:50;16.50;99.90
12152;DHT22;6139;51.274;7.128;2022-08-21T06:38:52;16.60;99.90
12152;DHT22;6139;51.274;7.128;2022-08-21T06:39:53;16.70;99.90
12152;DHT22;6139;51.274;7.128;2022-08-21T06:40:56;16.70;99.90
12152;DHT22;6139;51.274;7.128;2022-08-21T06:41:57;16.70;99.90